Time;durP1;ratioP1;P1;durP2;ratioP2;P2;SDS_P1;SDS_P2;PMS_P1;PMS_P2;Temp;Humidity;BMP_temperature;BMP_pressure;BME280_temperature;BME280_humidity;BME280_pressure;Samples;Min_cycle;Max_cycle;Signal;HPM_P1;HPM_P2
2023/05/29 00:00:52;;;;;;;21.48;5.07;;;;;;;;;;5049768;28;20174;-75
2023/05/29 00:03:18;;;;;;;15.63;3.83;;;;;;;;;;5067734;28;20033;-75
2023/05/29 00:05:44;;;;;;;14.43;3.88;;;;;;;;;;5058425;28;20029;-74
2023/05/29 00:08:10;;;;;;;15.00;4.07;;;;;;;;;;5066416;28;20634;-75
2023/05/29 00:10:37;;;;;;;18.65;3.90;;;;;;;;;;5068360;28;20021;-76
2023/05/29 00:13:03;;;;;;;16.10;3.35;;;;;;;;;;5062077;28;20482;-76
2023/05/29 00:15:30;;;;;;;21.33;4.55;;;;;;;;;;5050976;28;20025;-77
2023/05/29 00:17:56;;;;;;;15.48;3.22;;;;;;;;;;5050838;28;20111;-77
2023/05/29 00:20:22;;;;;;;21.80;4.60;;;;;;;;;;5050406;28;20475;-76
2023/05/29 00:22:48;;;;;;;12.75;3.10;;;;;;;;;;5050784;28;20028;-76
2023/05/29 00:25:15;;;;;;;10.93;3.70;;;;;;;;;;5050495;28;20033;-76
2023/05/29 00:27:41;;;;;;;18.75;3.78;;;;;;;;;;5051183;28;20028;-76
2023/05/29 00:30:08;;;;;;;16.90;4.25;;;;;;;;;;5050046;28;20528;-75
2023/05/29 00:32:34;;;;;;;19.30;4.68;;;;;;;;;;5050961;28;20055;-75
2023/05/29 00:35:00;;;;;;;15.00;3.33;;;;;;;;;;5052082;28;20037;-76
2023/05/29 00:37:26;;;;;;;12.05;3.33;;;;;;;;;;5052490;28;20497;-74
2023/05/29 00:39:52;;;;;;;17.35;4.03;;;;;;;;;;5052423;28;20036;-76
2023/05/29 00:42:18;;;;;;;20.45;4.03;;;;;;;;;;5070068;28;20108;-76
2023/05/29 00:44:44;;;;;;;16.85;4.50;;;;;;;;;;5052377;28;20123;-75
2023/05/29 00:47:10;;;;;;;13.00;2.92;;;;;;;;;;5056727;28;20410;-75
2023/05/29 00:49:37;;;;;;;14.07;3.03;;;;;;;;;;5049235;28;20025;-75
2023/05/29 00:52:03;;;;;;;19.13;3.67;;;;;;;;;;5049825;28;20086;-76
2023/05/29 00:54:30;;;;;;;17.88;4.18;;;;;;;;;;5056638;28;20029;-74
2023/05/29 00:56:57;;;;;;;13.68;3.70;;;;;;;;;;5069566;28;20039;-76
2023/05/29 00:59:24;;;;;;;15.40;3.65;;;;;;;;;;5069931;28;20119;-77
2023/05/29 01:01:51;;;;;;;20.33;4.05;;;;;;;;;;5040221;28;20031;-76
2023/05/29 01:04:17;;;;;;;24.40;5.20;;;;;;;;;;5050285;28;20040;-76
2023/05/29 01:06:44;;;;;;;20.45;4.28;;;;;;;;;;5057593;28;20098;-76
2023/05/29 01:09:10;;;;;;;9.52;2.70;;;;;;;;;;5069914;28;20028;-74
2023/05/29 01:11:51;;;;;;;14.63;3.28;;;;;;;;;;5070312;28;20035;-76
2023/05/29 01:14:36;;;;;;;16.05;2.72;;;;;;;;;;5052354;28;20039;-75
2023/05/29 01:17:08;;;;;;;18.10;5.18;;;;;;;;;;5045429;28;20491;-76
2023/05/29 01:19:43;;;;;;;20.13;3.72;;;;;;;;;;5062829;28;20025;-77
2023/05/29 01:22:16;;;;;;;22.45;3.88;;;;;;;;;;5069834;28;20033;-75
2023/05/29 01:24:48;;;;;;;13.02;2.70;;;;;;;;;;5051619;28;20089;-76
2023/05/29 01:27:16;;;;;;;15.63;3.28;;;;;;;;;;5060737;28;20633;-75
2023/05/29 01:29:43;;;;;;;17.20;2.70;;;;;;;;;;5049671;28;20025;-74
2023/05/29 01:32:10;;;;;;;20.13;4.05;;;;;;;;;;5048257;28;20124;-75
2023/05/29 01:34:36;;;;;;;16.65;3.75;;;;;;;;;;5048329;28;20025;-75
2023/05/29 01:37:02;;;;;;;11.18;2.50;;;;;;;;;;5047875;28;20036;-76
2023/05/29 01:39:28;;;;;;;16.33;4.15;;;;;;;;;;5049152;28;20063;-76
2023/05/29 01:41:55;;;;;;;13.13;3.45;;;;;;;;;;5049204;28;20033;-75
2023/05/29 01:44:21;;;;;;;16.95;3.58;;;;;;;;;;5051138;28;20186;-76
2023/05/29 01:46:48;;;;;;;15.88;3.30;;;;;;;;;;5049966;28;20033;-78
2023/05/29 01:49:14;;;;;;;14.93;2.83;;;;;;;;;;5050266;28;20487;-75
2023/05/29 01:51:40;;;;;;;15.18;4.22;;;;;;;;;;5049252;28;20110;-74
2023/05/29 01:54:06;;;;;;;17.92;4.45;;;;;;;;;;5048488;28;20210;-74
2023/05/29 01:56:33;;;;;;;20.38;3.80;;;;;;;;;;5049338;28;20100;-74
2023/05/29 01:58:59;;;;;;;15.40;4.38;;;;;;;;;;5048847;28;20533;-75
2023/05/29 02:01:25;;;;;;;18.38;4.05;;;;;;;;;;5057713;28;20021;-76
2023/05/29 02:03:52;;;;;;;11.50;3.30;;;;;;;;;;5066581;28;20063;-75
2023/05/29 02:06:18;;;;;;;13.52;3.38;;;;;;;;;;5068915;28;20032;-75
2023/05/29 02:08:44;;;;;;;20.63;4.07;;;;;;;;;;5068228;28;20499;-75
2023/05/29 02:11:10;;;;;;;15.30;3.00;;;;;;;;;;5068830;28;20111;-74
2023/05/29 02:13:36;;;;;;;25.35;5.40;;;;;;;;;;5069004;28;20099;-75
2023/05/29 02:16:02;;;;;;;20.20;4.47;;;;;;;;;;5068745;28;20052;-75
2023/05/29 02:18:28;;;;;;;22.15;4.07;;;;;;;;;;5050755;28;20028;-77
2023/05/29 02:20:54;;;;;;;23.48;4.60;;;;;;;;;;5068134;28;20505;-75
2023/05/29 02:23:21;;;;;;;17.42;4.00;;;;;;;;;;5069044;28;20505;-75
2023/05/29 02:25:47;;;;;;;23.73;4.35;;;;;;;;;;5068913;28;20040;-75
2023/05/29 02:28:13;;;;;;;15.05;3.60;;;;;;;;;;5068420;28;20039;-75
2023/05/29 02:30:39;;;;;;;14.82;3.42;;;;;;;;;;5051852;28;20032;-74
2023/05/29 02:33:06;;;;;;;24.08;4.47;;;;;;;;;;5058436;28;20514;-75
2023/05/29 02:35:32;;;;;;;15.82;4.55;;;;;;;;;;5068116;28;20050;-76
2023/05/29 02:37:58;;;;;;;19.42;3.28;;;;;;;;;;5067458;28;20035;-75
2023/05/29 02:40:24;;;;;;;27.23;4.75;;;;;;;;;;5068562;28;20035;-75
2023/05/29 02:42:51;;;;;;;17.02;3.97;;;;;;;;;;5067962;28;20036;-74
2023/05/29 02:45:17;;;;;;;14.98;3.53;;;;;;;;;;5068579;28;20044;-75
2023/05/29 02:47:43;;;;;;;13.50;3.13;;;;;;;;;;5067780;28;20394;-76
2023/05/29 02:50:09;;;;;;;16.88;3.45;;;;;;;;;;5068193;28;20032;-75
2023/05/29 02:52:39;;;;;;;18.17;3.55;;;;;;;;;;5068506;28;20093;-74
2023/05/29 02:55:06;;;;;;;15.45;3.50;;;;;;;;;;5049862;28;20543;-75
2023/05/29 02:57:32;;;;;;;19.13;3.90;;;;;;;;;;5068290;28;20040;-74
2023/05/29 02:59:59;;;;;;;18.98;4.05;;;;;;;;;;5067327;28;20020;-75
2023/05/29 03:02:25;;;;;;;16.55;3.58;;;;;;;;;;5062798;28;20029;-75
2023/05/29 03:04:52;;;;;;;19.35;4.40;;;;;;;;;;5067593;28;20462;-77
2023/05/29 03:07:18;;;;;;;17.45;4.53;;;;;;;;;;5068546;28;20111;-74
2023/05/29 03:09:44;;;;;;;19.52;4.25;;;;;;;;;;5068245;28;20493;-76
2023/05/29 03:12:11;;;;;;;13.30;3.42;;;;;;;;;;5067603;28;20497;-75
2023/05/29 03:14:37;;;;;;;16.52;4.22;;;;;;;;;;5067887;28;20493;-76
2023/05/29 03:17:07;;;;;;;19.42;4.28;;;;;;;;;;5067755;28;20025;-72
2023/05/29 03:19:34;;;;;;;14.65;4.00;;;;;;;;;;5068622;28;20046;-75
2023/05/29 03:22:00;;;;;;;20.70;3.75;;;;;;;;;;5050366;28;20020;-75
2023/05/29 03:24:27;;;;;;;20.67;4.28;;;;;;;;;;5068064;28;20410;-74
2023/05/29 03:26:53;;;;;;;20.00;4.28;;;;;;;;;;5068445;28;20025;-76
2023/05/29 03:29:19;;;;;;;22.13;3.97;;;;;;;;;;5061497;28;20032;-74
2023/05/29 03:31:45;;;;;;;17.23;3.75;;;;;;;;;;5048472;28;20042;-75
2023/05/29 03:34:11;;;;;;;11.05;2.72;;;;;;;;;;5047016;28;20021;-76
2023/05/29 03:36:37;;;;;;;23.08;3.75;;;;;;;;;;5046947;28;20111;-75
2023/05/29 03:39:04;;;;;;;15.95;2.95;;;;;;;;;;5047936;28;20032;-75
2023/05/29 03:41:30;;;;;;;19.10;4.25;;;;;;;;;;5048534;28;20879;-75
2023/05/29 03:43:56;;;;;;;19.48;3.95;;;;;;;;;;5068016;28;20107;-75
2023/05/29 03:46:22;;;;;;;18.38;3.97;;;;;;;;;;5068619;28;20020;-75
2023/05/29 03:48:48;;;;;;;19.77;3.78;;;;;;;;;;5069970;28;20074;-75
2023/05/29 03:51:14;;;;;;;16.85;4.60;;;;;;;;;;5071707;28;20035;-75
2023/05/29 03:53:40;;;;;;;22.98;4.43;;;;;;;;;;5064221;28;20035;-74
2023/05/29 03:56:06;;;;;;;17.25;3.17;;;;;;;;;;5071498;28;20413;-75
2023/05/29 03:58:32;;;;;;;17.88;3.58;;;;;;;;;;5052959;28;20094;-75
2023/05/29 04:00:58;;;;;;;15.23;3.03;;;;;;;;;;5059246;28;20119;-75
2023/05/29 04:03:27;;;;;;;11.48;3.03;;;;;;;;;;5050775;28;20025;-75
2023/05/29 04:05:53;;;;;;;19.50;5.03;;;;;;;;;;5049993;28;20029;-74
2023/05/29 04:08:20;;;;;;;14.85;2.90;;;;;;;;;;5051408;28;20036;-75
2023/05/29 04:10:46;;;;;;;17.70;3.40;;;;;;;;;;5051476;28;20033;-76
2023/05/29 04:13:12;;;;;;;17.90;3.80;;;;;;;;;;5050525;28;20036;-76
2023/05/29 04:15:38;;;;;;;14.10;3.13;;;;;;;;;;5051133;28;20490;-76
2023/05/29 04:18:04;;;;;;;13.95;3.40;;;;;;;;;;5049817;28;20021;-75
2023/05/29 04:20:30;;;;;;;20.33;3.30;;;;;;;;;;5051469;28;20021;-74
2023/05/29 04:22:56;;;;;;;19.02;3.33;;;;;;;;;;5050786;28;20029;-75
2023/05/29 04:25:22;;;;;;;16.80;3.20;;;;;;;;;;5051215;28;20033;-76
2023/05/29 04:27:48;;;;;;;21.75;3.60;;;;;;;;;;5053631;28;20486;-73
2023/05/29 04:30:15;;;;;;;17.27;3.35;;;;;;;;;;5050710;28;20102;-74
2023/05/29 04:32:41;;;;;;;23.85;3.88;;;;;;;;;;5050965;28;20392;-75
2023/05/29 04:35:07;;;;;;;21.38;3.42;;;;;;;;;;5050052;28;20112;-74
2023/05/29 04:37:38;;;;;;;14.05;3.28;;;;;;;;;;5050718;28;20021;-75
2023/05/29 04:40:07;;;;;;;;;;;;;;;;;;5070784;28;20073;-73
2023/05/29 04:42:33;;;;;;;17.58;4.65;;;;;;;;;;5070881;28;19950;-76
2023/05/29 04:45:00;;;;;;;14.07;3.15;;;;;;;;;;5052567;28;20047;-74
2023/05/29 04:47:26;;;;;;;17.38;3.30;;;;;;;;;;5070354;28;20024;-75
2023/05/29 04:49:53;;;;;;;24.27;5.18;;;;;;;;;;5052140;28;20075;-74
2023/05/29 04:52:21;;;;;;;15.95;3.60;;;;;;;;;;5067916;28;20478;-74
2023/05/29 04:54:47;;;;;;;11.10;3.13;;;;;;;;;;5070653;28;20067;-73
2023/05/29 04:57:13;;;;;;;19.45;4.78;;;;;;;;;;5068922;28;20016;-73
2023/05/29 04:59:42;;;;;;;15.40;3.67;;;;;;;;;;5050249;28;20024;-75
2023/05/29 05:02:08;;;;;;;17.45;3.63;;;;;;;;;;5063749;28;20120;-74
2023/05/29 05:04:34;;;;;;;17.98;3.47;;;;;;;;;;5070685;28;20041;-75
2023/05/29 05:07:01;;;;;;;11.77;3.00;;;;;;;;;;5069690;28;20463;-74
2023/05/29 05:09:27;;;;;;;15.05;3.50;;;;;;;;;;5069810;28;20040;-73
2023/05/29 05:11:54;;;;;;;20.50;3.45;;;;;;;;;;5068449;28;20034;-73
2023/05/29 05:14:20;;;;;;;19.38;3.63;;;;;;;;;;5058388;28;20075;-74
2023/05/29 05:16:46;;;;;;;12.30;3.38;;;;;;;;;;5070112;28;20048;-73
2023/05/29 05:19:12;;;;;;;21.42;3.65;;;;;;;;;;5069498;28;20035;-74
2023/05/29 05:21:39;;;;;;;15.95;3.95;;;;;;;;;;5069059;28;20032;-74
2023/05/29 05:24:05;;;;;;;19.75;3.97;;;;;;;;;;5069385;28;20043;-75
2023/05/29 05:26:31;;;;;;;12.90;3.00;;;;;;;;;;5067873;28;20025;-75
2023/05/29 05:28:57;;;;;;;23.70;5.03;;;;;;;;;;5066754;28;20039;-74
2023/05/29 05:31:23;;;;;;;11.90;2.53;;;;;;;;;;5050127;28;20017;-74
2023/05/29 05:33:49;;;;;;;17.38;4.05;;;;;;;;;;5049847;28;20108;-74
2023/05/29 05:36:15;;;;;;;18.77;3.45;;;;;;;;;;5059225;28;20412;-75
2023/05/29 05:38:41;;;;;;;16.38;3.25;;;;;;;;;;5070157;28;20441;-73
2023/05/29 05:41:07;;;;;;;18.20;3.55;;;;;;;;;;5069294;28;20500;-74
2023/05/29 05:43:34;;;;;;;17.33;3.90;;;;;;;;;;5058224;28;20487;-73
2023/05/29 05:45:59;;;;;;;12.48;2.30;;;;;;;;;;5069183;28;20028;-74
2023/05/29 05:48:26;;;;;;;12.23;2.50;;;;;;;;;;5069821;28;20016;-74
2023/05/29 05:50:52;;;;;;;15.75;3.15;;;;;;;;;;5069127;28;20029;-74
2023/05/29 05:53:18;;;;;;;13.48;2.97;;;;;;;;;;5051249;28;20422;-74
2023/05/29 05:55:44;;;;;;;11.52;2.42;;;;;;;;;;5051068;28;20028;-74
2023/05/29 05:58:10;;;;;;;8.30;2.17;;;;;;;;;;5050800;28;20171;-73
2023/05/29 06:00:36;;;;;;;10.80;2.80;;;;;;;;;;5050120;28;20028;-73
2023/05/29 06:03:03;;;;;;;10.07;3.17;;;;;;;;;;5048824;28;20051;-72
2023/05/29 06:05:30;;;;;;;16.02;2.97;;;;;;;;;;5049482;28;20039;-73
2023/05/29 06:07:57;;;;;;;14.63;3.17;;;;;;;;;;5048461;28;20113;-74
2023/05/29 06:10:23;;;;;;;16.02;3.25;;;;;;;;;;5048661;28;20124;-74
2023/05/29 06:12:49;;;;;;;17.55;4.28;;;;;;;;;;5068626;28;20422;-74
2023/05/29 06:15:15;;;;;;;16.10;3.60;;;;;;;;;;5069669;28;20024;-73
2023/05/29 06:17:41;;;;;;;9.57;2.67;;;;;;;;;;5054945;28;20449;-74
2023/05/29 06:20:11;;;;;;;17.88;3.60;;;;;;;;;;5068218;28;20028;-72
2023/05/29 06:22:37;;;;;;;11.98;2.72;;;;;;;;;;5068935;28;20028;-73
2023/05/29 06:25:03;;;;;;;10.90;2.50;;;;;;;;;;5058124;28;20475;-74
2023/05/29 06:27:29;;;;;;;15.75;3.22;;;;;;;;;;5052857;28;20021;-74
2023/05/29 06:29:56;;;;;;;6.00;1.80;;;;;;;;;;5047162;28;20221;-73
2023/05/29 06:32:22;;;;;;;11.48;3.10;;;;;;;;;;5047941;28;20503;-74
2023/05/29 06:34:48;;;;;;;12.45;2.38;;;;;;;;;;5048008;28;20029;-73
2023/05/29 06:37:14;;;;;;;11.10;2.55;;;;;;;;;;5049458;28;20033;-74
2023/05/29 06:39:41;;;;;;;10.10;3.03;;;;;;;;;;5048867;28;20104;-73
2023/05/29 06:42:08;;;;;;;12.40;2.58;;;;;;;;;;5048540;28;20333;-74
2023/05/29 06:44:34;;;;;;;10.93;2.47;;;;;;;;;;5048614;28;20029;-75
2023/05/29 06:47:00;;;;;;;17.40;2.72;;;;;;;;;;5044952;28;20053;-74
2023/05/29 06:49:27;;;;;;;13.40;2.45;;;;;;;;;;5056241;28;20051;-74
2023/05/29 06:51:53;;;;;;;16.77;3.10;;;;;;;;;;5065848;28;20286;-73
2023/05/29 06:54:19;;;;;;;13.35;2.28;;;;;;;;;;5048436;28;20048;-72
2023/05/29 06:56:45;;;;;;;18.83;3.65;;;;;;;;;;5048949;28;20044;-73
2023/05/29 06:59:11;;;;;;;16.77;3.05;;;;;;;;;;5047954;28;20051;-75
2023/05/29 07:01:37;;;;;;;14.27;2.70;;;;;;;;;;5056614;28;20036;-73
2023/05/29 07:04:03;;;;;;;12.20;2.83;;;;;;;;;;5066815;28;20143;-74
2023/05/29 07:06:29;;;;;;;14.25;2.65;;;;;;;;;;5066920;28;20514;-74
2023/05/29 07:08:55;;;;;;;14.93;3.15;;;;;;;;;;5066663;28;20032;-73
2023/05/29 07:11:21;;;;;;;20.00;3.53;;;;;;;;;;5067009;28;20444;-73
2023/05/29 07:13:47;;;;;;;10.48;2.75;;;;;;;;;;5067387;28;20025;-74
2023/05/29 07:16:13;;;;;;;9.38;2.50;;;;;;;;;;5068102;28;20032;-74
2023/05/29 07:18:39;;;;;;;13.20;2.13;;;;;;;;;;5055084;28;20078;-73
2023/05/29 07:21:05;;;;;;;13.60;2.60;;;;;;;;;;5067509;28;20025;-75
2023/05/29 07:23:32;;;;;;;15.80;3.78;;;;;;;;;;5053811;28;20024;-73
2023/05/29 07:25:58;;;;;;;10.10;2.08;;;;;;;;;;5053379;28;20088;-75
2023/05/29 07:28:24;;;;;;;13.43;3.13;;;;;;;;;;5054103;28;20024;-73
2023/05/29 07:30:50;;;;;;;8.00;3.03;;;;;;;;;;5054044;28;20033;-73
2023/05/29 07:33:16;;;;;;;9.40;2.28;;;;;;;;;;5063340;28;20027;-72
2023/05/29 07:35:42;;;;;;;12.02;2.70;;;;;;;;;;5071578;28;20024;-73
2023/05/29 07:38:08;;;;;;;8.70;2.10;;;;;;;;;;5071234;28;20056;-72
2023/05/29 07:40:34;;;;;;;9.93;2.75;;;;;;;;;;5054170;28;20129;-72
2023/05/29 07:43:00;;;;;;;8.13;2.28;;;;;;;;;;5071186;28;20433;-73
2023/05/29 07:45:27;;;;;;;9.57;2.42;;;;;;;;;;5071603;28;20401;-73
2023/05/29 07:47:53;;;;;;;11.07;2.38;;;;;;;;;;5059200;28;20039;-74
2023/05/29 07:50:19;;;;;;;13.73;2.55;;;;;;;;;;5053473;28;20037;-72
2023/05/29 07:52:45;;;;;;;9.55;1.70;;;;;;;;;;5071837;28;20024;-72
2023/05/29 07:55:12;;;;;;;8.40;2.13;;;;;;;;;;5071264;28;20300;-72
2023/05/29 07:57:39;;;;;;;11.43;2.10;;;;;;;;;;5060659;28;20505;-72
2023/05/29 08:00:05;;;;;;;8.90;2.95;;;;;;;;;;5069377;28;20025;-72
2023/05/29 08:02:31;;;;;;;12.02;2.00;;;;;;;;;;5054650;28;20017;-72
2023/05/29 08:04:57;;;;;;;10.82;2.22;;;;;;;;;;5065005;28;20037;-72
2023/05/29 08:07:23;;;;;;;12.15;2.72;;;;;;;;;;5058780;28;20040;-73
2023/05/29 08:09:49;;;;;;;12.30;3.00;;;;;;;;;;5051986;28;20025;-72
2023/05/29 08:12:15;;;;;;;11.60;2.58;;;;;;;;;;5070552;28;20028;-73
2023/05/29 08:14:41;;;;;;;11.68;2.63;;;;;;;;;;5058112;28;20390;-73
2023/05/29 08:17:07;;;;;;;10.90;2.40;;;;;;;;;;5070045;28;20348;-73
2023/05/29 08:19:34;;;;;;;10.55;3.10;;;;;;;;;;5053792;28;20021;-73
2023/05/29 08:22:00;;;;;;;7.18;2.03;;;;;;;;;;5059978;28;20487;-72
2023/05/29 08:24:27;;;;;;;16.25;3.40;;;;;;;;;;5071353;28;20093;-72
2023/05/29 08:26:54;;;;;;;10.48;2.58;;;;;;;;;;5067425;28;20482;-72
2023/05/29 08:29:20;;;;;;;11.88;3.28;;;;;;;;;;5064416;28;20103;-73
2023/05/29 08:31:46;;;;;;;11.13;2.75;;;;;;;;;;5070766;28;20032;-73
2023/05/29 08:34:12;;;;;;;9.07;2.78;;;;;;;;;;5065507;28;20021;-72
2023/05/29 08:36:41;;;;;;;15.45;2.85;;;;;;;;;;5071067;28;20066;-73
2023/05/29 08:39:07;;;;;;;11.50;2.05;;;;;;;;;;5056670;28;20032;-72
2023/05/29 08:41:45;;;;;;;11.68;3.10;;;;;;;;;;5058639;28;20048;-73
2023/05/29 08:44:14;;;;;;;10.93;2.30;;;;;;;;;;5051079;28;20044;-74
2023/05/29 08:46:40;;;;;;;9.75;2.33;;;;;;;;;;5059569;28;20033;-74
2023/05/29 08:49:07;;;;;;;18.67;3.85;;;;;;;;;;5064922;28;20033;-72
2023/05/29 08:51:36;;;;;;;12.00;3.10;;;;;;;;;;5061589;28;20485;-73
2023/05/29 08:54:02;;;;;;;10.45;2.72;;;;;;;;;;5067445;28;20032;-73
2023/05/29 08:56:28;;;;;;;7.72;2.30;;;;;;;;;;5065895;28;20107;-72
2023/05/29 08:58:55;;;;;;;6.40;1.90;;;;;;;;;;5056387;28;20049;-73
2023/05/29 09:01:22;;;;;;;18.13;3.25;;;;;;;;;;5068165;28;20133;-74
2023/05/29 09:03:48;;;;;;;9.07;2.17;;;;;;;;;;5056271;28;20039;-73
2023/05/29 09:06:14;;;;;;;12.57;2.30;;;;;;;;;;5063114;28;20040;-73
2023/05/29 09:08:41;;;;;;;11.35;2.70;;;;;;;;;;5067079;28;20020;-72
2023/05/29 09:11:07;;;;;;;10.82;2.53;;;;;;;;;;5058056;28;20074;-72
2023/05/29 09:13:33;;;;;;;10.65;2.90;;;;;;;;;;5058795;28;20479;-74
2023/05/29 09:16:00;;;;;;;10.38;2.13;;;;;;;;;;5060528;28;20025;-73
2023/05/29 09:18:30;;;;;;;12.70;3.55;;;;;;;;;;5068256;28;20025;-75
2023/05/29 09:20:57;;;;;;;;;;;;;;;;;;5040624;28;20107;-72
2023/05/29 09:23:23;;;;;;;13.45;2.85;;;;;;;;;;5057931;28;20434;-74
2023/05/29 09:25:52;;;;;;;8.35;2.00;;;;;;;;;;5061686;28;20437;-74
2023/05/29 09:28:19;;;;;;;7.05;2.08;;;;;;;;;;5064258;28;20383;-73
2023/05/29 09:30:46;;;;;;;11.50;3.22;;;;;;;;;;5048299;28;20123;-73
2023/05/29 09:33:13;;;;;;;13.07;3.72;;;;;;;;;;5049853;28;20029;-74
2023/05/29 09:35:39;;;;;;;12.85;2.72;;;;;;;;;;5049835;28;20029;-72
2023/05/29 09:38:06;;;;;;;12.27;2.70;;;;;;;;;;5049800;28;20025;-72
2023/05/29 09:40:33;;;;;;;8.77;2.30;;;;;;;;;;5049839;28;20029;-73
2023/05/29 09:43:07;;;;;;;14.00;3.55;;;;;;;;;;5049333;28;20072;-73
2023/05/29 09:45:33;;;;;;;11.50;3.65;;;;;;;;;;5068558;28;20518;-73
2023/05/29 09:47:59;;;;;;;11.00;3.10;;;;;;;;;;5069324;28;20103;-73
2023/05/29 09:50:28;;;;;;;8.55;2.38;;;;;;;;;;5063509;28;20025;-74
2023/05/29 09:52:57;;;;;;;10.57;2.75;;;;;;;;;;5050480;28;20017;-75
2023/05/29 09:55:28;;;;;;;10.48;2.85;;;;;;;;;;5041315;28;20028;-75
2023/05/29 09:57:54;;;;;;;11.50;3.20;;;;;;;;;;5067252;28;20123;-74
2023/05/29 10:00:21;;;;;;;9.18;2.60;;;;;;;;;;5059207;28;20107;-74
2023/05/29 10:02:48;;;;;;;12.30;2.72;;;;;;;;;;5067167;28;20478;-74
2023/05/29 10:05:18;;;;;;;10.93;3.17;;;;;;;;;;5066215;28;20482;-73
2023/05/29 10:07:47;;;;;;;11.47;2.80;;;;;;;;;;5065545;28;20032;-73
2023/05/29 10:10:14;;;;;;;11.67;2.50;;;;;;;;;;5060063;28;20404;-72
2023/05/29 10:12:44;;;;;;;9.60;2.72;;;;;;;;;;5066381;28;20029;-71
2023/05/29 10:15:14;;;;;;;6.40;2.15;;;;;;;;;;5060013;28;20360;-73
2023/05/29 10:17:43;;;;;;;9.05;2.53;;;;;;;;;;5067792;28;20028;-73
2023/05/29 10:20:11;;;;;;;10.77;2.30;;;;;;;;;;5058209;28;20027;-73
2023/05/29 10:22:40;;;;;;;11.98;2.42;;;;;;;;;;5068157;28;20259;-74
2023/05/29 10:25:07;;;;;;;8.77;2.58;;;;;;;;;;5041297;28;20036;-73
2023/05/29 10:27:34;;;;;;;10.95;3.15;;;;;;;;;;5065850;28;20039;-73
2023/05/29 10:30:02;;;;;;;10.30;2.50;;;;;;;;;;5064619;28;20028;-72
2023/05/29 10:32:53;;;;;;;7.63;1.98;;;;;;;;;;5063653;28;20041;-72
2023/05/29 10:35:23;;;;;;;9.15;2.33;;;;;;;;;;5063356;28;20103;-73
2023/05/29 10:38:02;;;;;;;7.88;1.85;;;;;;;;;;5064741;28;20044;-73
2023/05/29 10:40:28;;;;;;;8.23;2.55;;;;;;;;;;5043738;28;20063;-73
2023/05/29 10:42:58;;;;;;;8.82;2.60;;;;;;;;;;5061507;28;20419;-73
2023/05/29 10:45:31;;;;;;;9.63;2.65;;;;;;;;;;5063655;28;20033;-73
2023/05/29 10:48:17;;;;;;;11.30;3.00;;;;;;;;;;5061413;28;20063;-73
2023/05/29 10:50:47;;;;;;;9.40;2.38;;;;;;;;;;5064635;28;20451;-73
2023/05/29 10:53:32;;;;;;;8.85;2.40;;;;;;;;;;5048209;28;20050;-74
2023/05/29 10:56:00;;;;;;;10.25;2.38;;;;;;;;;;5049279;28;20025;-73
2023/05/29 10:58:27;;;;;;;7.97;2.50;;;;;;;;;;5054403;28;20411;-74
2023/05/29 11:00:55;;;;;;;6.63;1.85;;;;;;;;;;5045489;28;20487;-73
2023/05/29 11:03:22;;;;;;;9.98;2.95;;;;;;;;;;5061231;28;20071;-76
2023/05/29 11:06:02;;;;;;;6.63;2.42;;;;;;;;;;5061185;28;20509;-73
2023/05/29 11:08:35;;;;;;;10.00;3.33;;;;;;;;;;5056348;28;20407;-74
2023/05/29 11:11:01;;;;;;;8.18;2.20;;;;;;;;;;5044015;28;20380;-73
2023/05/29 11:13:34;;;;;;;9.20;2.72;;;;;;;;;;5060045;28;20353;-73
2023/05/29 11:16:12;;;;;;;10.32;2.38;;;;;;;;;;5062385;28;20021;-74
2023/05/29 11:18:46;;;;;;;13.15;2.25;;;;;;;;;;5061923;28;20459;-73
2023/05/29 11:21:31;;;;;;;8.82;2.13;;;;;;;;;;5057781;28;20032;-73
2023/05/29 11:24:07;;;;;;;10.43;2.63;;;;;;;;;;5059337;28;20475;-73
2023/05/29 11:26:34;;;;;;;9.77;2.42;;;;;;;;;;5058442;28;20029;-74
2023/05/29 11:29:01;;;;;;;11.85;2.30;;;;;;;;;;5053839;28;20543;-74
2023/05/29 11:31:31;;;;;;;6.85;1.83;;;;;;;;;;5057055;28;20048;-73
2023/05/29 11:34:00;;;;;;;10.43;2.77;;;;;;;;;;5053952;28;20503;-73
2023/05/29 11:36:27;;;;;;;9.20;2.15;;;;;;;;;;5059870;28;20020;-74
2023/05/29 11:38:54;;;;;;;7.70;2.22;;;;;;;;;;5062852;28;20032;-73
2023/05/29 11:41:20;;;;;;;11.40;3.22;;;;;;;;;;5059586;28;20429;-75
2023/05/29 11:43:57;;;;;;;6.32;2.00;;;;;;;;;;5064539;28;20059;-71
2023/05/29 11:46:26;;;;;;;8.75;2.78;;;;;;;;;;5059488;28;20395;-73
2023/05/29 11:48:52;;;;;;;9.18;2.13;;;;;;;;;;5063163;28;20031;-73
2023/05/29 11:51:18;;;;;;;12.77;2.72;;;;;;;;;;5057662;28;20394;-74
2023/05/29 11:53:47;;;;;;;9.70;2.70;;;;;;;;;;5055701;28;20024;-74
2023/05/29 11:56:13;;;;;;;9.55;2.25;;;;;;;;;;5061729;28;20021;-74
2023/05/29 11:58:40;;;;;;;9.63;2.47;;;;;;;;;;5050525;28;20158;-74
2023/05/29 12:01:07;;;;;;;12.23;3.15;;;;;;;;;;5058065;28;20118;-73
2023/05/29 12:03:43;;;;;;;8.77;2.50;;;;;;;;;;5058345;28;20037;-73
2023/05/29 12:06:10;;;;;;;11.40;2.05;;;;;;;;;;5059820;28;20041;-75
2023/05/29 12:08:37;;;;;;;8.82;2.45;;;;;;;;;;5045715;28;20398;-74
2023/05/29 12:11:03;;;;;;;8.57;2.53;;;;;;;;;;5053554;28;20033;-74
2023/05/29 12:13:29;;;;;;;8.27;2.25;;;;;;;;;;5063431;28;20084;-73
2023/05/29 12:15:57;;;;;;;9.90;2.45;;;;;;;;;;5051007;28;20059;-73
2023/05/29 12:18:23;;;;;;;9.30;2.40;;;;;;;;;;5053824;28;20039;-73
2023/05/29 12:20:49;;;;;;;7.18;2.40;;;;;;;;;;5069280;28;20025;-74
2023/05/29 12:23:16;;;;;;;10.32;2.85;;;;;;;;;;5069670;28;20044;-74
2023/05/29 12:25:45;;;;;;;12.02;2.92;;;;;;;;;;5069454;28;20036;-73
2023/05/29 12:28:17;;;;;;;12.52;3.15;;;;;;;;;;5070361;28;20483;-73
2023/05/29 12:30:45;;;;;;;14.68;3.70;;;;;;;;;;5052344;28;20107;-73
2023/05/29 12:33:25;;;;;;;8.52;2.42;;;;;;;;;;5047000;28;20075;-73
2023/05/29 12:35:51;;;;;;;10.35;2.90;;;;;;;;;;5046935;28;20120;-72
2023/05/29 12:38:20;;;;;;;10.20;2.47;;;;;;;;;;5049320;28;20096;-73
2023/05/29 12:40:49;;;;;;;6.00;2.55;;;;;;;;;;5055675;28;20513;-72
2023/05/29 12:43:16;;;;;;;12.88;3.17;;;;;;;;;;5048037;28;20029;-73
2023/05/29 12:45:43;;;;;;;12.10;2.83;;;;;;;;;;5050417;28;20044;-73
2023/05/29 12:48:10;;;;;;;8.88;2.90;;;;;;;;;;5067718;28;20142;-73
2023/05/29 12:50:38;;;;;;;12.10;2.58;;;;;;;;;;5069157;28;20407;-73
2023/05/29 12:53:09;;;;;;;10.85;2.67;;;;;;;;;;5068206;28;20199;-74
2023/05/29 12:55:39;;;;;;;11.77;3.05;;;;;;;;;;5069120;28;20123;-72
2023/05/29 12:58:08;;;;;;;7.07;2.03;;;;;;;;;;5068129;28;20048;-73
2023/05/29 13:00:35;;;;;;;8.52;2.60;;;;;;;;;;5066620;28;20428;-73
2023/05/29 13:03:01;;;;;;;10.77;2.45;;;;;;;;;;5053105;28;20141;-72
2023/05/29 13:05:27;;;;;;;10.00;2.97;;;;;;;;;;5062986;28;20063;-72
2023/05/29 13:07:53;;;;;;;13.07;3.20;;;;;;;;;;5038912;28;20107;-73
2023/05/29 13:10:20;;;;;;;12.63;3.28;;;;;;;;;;5052575;28;20382;-74
2023/05/29 13:12:47;;;;;;;15.50;3.55;;;;;;;;;;5065898;28;20041;-73
2023/05/29 13:15:14;;;;;;;9.25;2.55;;;;;;;;;;5049876;28;20048;-73
2023/05/29 13:17:40;;;;;;;9.45;2.88;;;;;;;;;;5050064;28;20027;-73
2023/05/29 13:20:10;;;;;;;9.25;2.35;;;;;;;;;;5049384;28;20052;-73
2023/05/29 13:22:36;;;;;;;11.27;3.22;;;;;;;;;;5049448;28;20021;-72
2023/05/29 13:25:03;;;;;;;8.43;2.75;;;;;;;;;;5049529;28;20040;-73
2023/05/29 13:27:29;;;;;;;11.23;2.92;;;;;;;;;;5066910;28;20017;-73
2023/05/29 13:29:56;;;;;;;9.05;2.65;;;;;;;;;;5069147;28;20042;-73
2023/05/29 13:32:22;;;;;;;10.15;3.10;;;;;;;;;;5069662;28;20052;-74
2023/05/29 13:34:48;;;;;;;11.45;3.15;;;;;;;;;;5068860;28;20445;-75
2023/05/29 13:37:14;;;;;;;8.90;2.22;;;;;;;;;;5069838;28;20048;-73
2023/05/29 13:39:40;;;;;;;9.82;2.55;;;;;;;;;;5069274;28;20031;-73
2023/05/29 13:42:07;;;;;;;9.93;3.28;;;;;;;;;;5064524;28;20520;-72
2023/05/29 13:44:33;;;;;;;9.13;2.53;;;;;;;;;;5049673;28;20128;-72
2023/05/29 13:46:59;;;;;;;10.18;2.80;;;;;;;;;;5050204;28;20087;-74
2023/05/29 13:49:26;;;;;;;12.23;3.05;;;;;;;;;;5049527;28;20403;-73
2023/05/29 13:51:52;;;;;;;12.63;2.67;;;;;;;;;;5050964;28;20536;-73
2023/05/29 13:54:18;;;;;;;15.45;3.47;;;;;;;;;;5049757;28;20032;-73
2023/05/29 13:56:45;;;;;;;13.25;2.90;;;;;;;;;;5048695;28;20029;-74
2023/05/29 13:59:11;;;;;;;11.38;2.95;;;;;;;;;;5048706;28;20055;-74
2023/05/29 14:01:37;;;;;;;12.82;3.05;;;;;;;;;;5058832;28;20025;-73
2023/05/29 14:04:03;;;;;;;10.10;2.63;;;;;;;;;;5068459;28;20043;-72
2023/05/29 14:06:29;;;;;;;8.13;2.45;;;;;;;;;;5068592;28;20036;-73
2023/05/29 14:08:55;;;;;;;12.98;3.58;;;;;;;;;;5066017;28;20029;-72
2023/05/29 14:11:22;;;;;;;15.00;2.97;;;;;;;;;;5056766;28;20550;-72
2023/05/29 14:13:48;;;;;;;8.75;2.88;;;;;;;;;;5053597;28;20090;-73
2023/05/29 14:16:15;;;;;;;8.35;2.78;;;;;;;;;;5062314;28;20039;-73
2023/05/29 14:18:41;;;;;;;8.35;3.10;;;;;;;;;;5068475;28;20032;-72
2023/05/29 14:21:08;;;;;;;13.90;2.67;;;;;;;;;;5068090;28;20274;-72
2023/05/29 14:23:36;;;;;;;12.75;2.83;;;;;;;;;;5068215;28;20479;-73
2023/05/29 14:26:03;;;;;;;11.15;2.90;;;;;;;;;;5068037;28;20090;-72
2023/05/29 14:28:29;;;;;;;7.75;2.42;;;;;;;;;;5068532;28;20056;-73
2023/05/29 14:30:55;;;;;;;7.30;2.42;;;;;;;;;;5046024;28;20441;-73
2023/05/29 14:33:21;;;;;;;13.00;3.05;;;;;;;;;;5048566;28;20029;-73